< Typhoon 195102 1951 Season Typhoon 195104 >
Typhoon 195103 (HOPE)
General InformationTrack Information on Google Maps || Disaster Info.ResourceGoogle EarthGE AnimationAtom FeedGeoJSON
Detalied Best Track (Time Zone = UTC)
Year Month Day Hour Lat. Long. Pressure (hPa) Wind (kt) Class Image Chart
1951 4 15 00 8.0 151.5 1002 0 2 -- Chart
1951 4 15 06 8.3 150.3 1002 0 2 -- Chart
1951 4 15 12 8.6 149.3 1002 0 2 -- Chart
1951 4 15 18 8.8 148.3 1000 0 2 -- Chart
1951 4 16 00 9.2 147.2 1000 0 2 -- Chart
1951 4 16 06 9.6 146.4 1000 0 2 -- Chart
1951 4 16 12 10.2 145.5 1000 0 2 -- Chart
1951 4 16 18 11.0 144.6 998 0 2 -- Chart
1951 4 17 00 11.7 144.0 998 0 2 -- Chart
1951 4 17 06 12.5 143.5 998 0 2 -- Chart
1951 4 17 12 13.5 143.1 998 0 2 -- Chart
1951 4 17 18 14.3 142.7 996 0 9 -- Chart
1951 4 18 00 15.0 142.5 995 0 9 -- Chart
1951 4 18 06 16.0 142.5 985 0 9 -- Chart
1951 4 18 12 16.2 142.2 985 0 9 -- Chart
1951 4 18 18 16.0 141.9 980 0 9 -- Chart
1951 4 19 00 15.8 141.6 990 0 9 -- Chart
1951 4 19 06 15.9 141.0 990 0 9 -- Chart
1951 4 19 12 15.9 140.2 990 0 9 -- Chart
1951 4 19 18 15.7 139.3 990 0 9 -- Chart
1951 4 20 00 15.3 138.2 990 0 9 -- Chart
1951 4 20 06 15.1 137.0 995 0 9 -- Chart
1951 4 20 12 14.8 136.0 995 0 9 -- Chart
1951 4 20 18 14.8 135.1 995 0 9 -- Chart
1951 4 21 00 14.7 134.3 997 0 9 -- Chart
1951 4 21 06 14.8 133.5 998 0 9 -- Chart
1951 4 21 12 14.8 132.8 998 0 9 -- Chart
1951 4 21 18 15.0 132.0 998 0 9 -- Chart
1951 4 22 00 15.1 131.0 998 0 9 -- Chart
1951 4 22 06 15.2 130.3 998 0 9 -- Chart
1951 4 22 12 15.5 129.4 1000 0 9 -- Chart
1951 4 22 18 15.6 128.7 1000 0 2 -- Chart
1951 4 23 00 15.9 127.9 1004 0 2 -- Chart
1951 4 23 06 16.2 127.2 1005 0 2 -- Chart
1951 4 23 12 17.1 127.0 1008 0 2 -- Chart
1951 4 23 18 18.0 127.0 1008 0 2 -- Chart
Japan Meteorological Agency Best Track Data | Correction Date : 1989-06-01
< Typhoon 195102 1951 Season Typhoon 195104 >

Help